Atlanta, GA (30364)

6:27 PM EST on January 26, 2015 (GMT -0500)
Heatherwood Sub. | Change Station
CLOSE
Current Station
Personal Weather Station
Location: Riverdale, GA
Elevation: 975 ft
Nearby Weather Stations
Active Advisory: Wind Advisory

Elev 975 ft 33.60 °N, 84.43 °W | Updated 1 second ago

Overcast
Overcast
37.3 °F
Feels Like 37 °F
N
0.0
Wind Variable Wind from West
Gusts 10.0 mph

Today
High -- | Low -- °F
--% Chance of Precip.
Yesterday
High -- | Low -- °F
Precip. -- in
7:38 AM 6:02 PM
Waxing Crescent, 47% visible
Pressure 29.91 in
Visibility 10.0 miles
Clouds Mostly Cloudy 2600 ft
Windchill 37 °F
Dew Point 30 °F
Humidity 76%
Rainfall 0.01 in
Snow Depth Not available.
UV 0.0 out of 12
Pollen 1.90 out of 12
Air Quality Not available.
Flu Activity Not available.
METAR KATL 262252Z 31017G22KT 10SM BKN026 03/M02 A2989 RMK AO2 SLP128 T00331022

More Conditions Fewer Conditions

Pressure 29.91 in
Visibility 10.0 miles
Clouds Mostly Cloudy 2600 ft
Windchill 37 °F
Dew Point 30 °F
Humidity 76%
Rainfall 0.01 in
Snow Depth Not available.
UV 0.0 out of 12
Pollen 1.90 out of 12
Air Quality Not available.
Flu Activity Not available.
METAR KATL 262252Z 31017G22KT 10SM BKN026 03/M02 A2989 RMK AO2 SLP128 T00331022

More Conditions Fewer Conditions

10-Day Weather Forecast

Almanac

Astronomy

Jan. 26, 2015 Rise Set
Actual Time
Civil Twilight
Nautical Twilight
Astronomical Twilight
Moon
Length of Visible Light
Length of Day
Tomorrow will be .
, % of the Moon is Illuminated

Today's Extremes

State Highs State Lows

Community

WunderPhotos

Upload Photos

1,790,394 photos uploaded!

WunderBlogs® & News

Nearby

Air Quality

  Air Quality AQ Index Pollutant
Not available.

Snow Depth

Station Depth Elevation

Earthquake Activity

City Distance Mag. Time & Date
Minimum magnitude displayed is 2.5.

Coastal Water Temperatures

Place Temperature

Nearby Weather Stations